»·PEaware :: N1394 L52-L88

N1394 :: L52-L88

FLIGHT INFORMATION

Flight Status: Arrived
Operator: Privately registered:
United States
More flights under this callsign
Pilot: Anonymous 20681 (20681)
Aircraft: CESSNA 172 SKYHAWK
(C172)
More flights by this aircraft type
Origin: L52 Oceano Co
United States
Destination: L88 New Cuyama
United States
More flights between these airports :: More routes between these airports
Route:
File this flight plan on PilotEdge
Remarks: First flight on PilotEdge
Altitude:
(Current/Filed)
3,500ft
Speed:
(Current/Filed)
115kts
Departed: 11-Oct-18 01:26 PM
Arrived: 11-Oct-18 02:06 PM
Distance/Time
Traveled:
47nm/0:40
Distance/Time
To Go:
Arrived

Flight Plot

Page will automatically refresh every two minutes.


Map Options




Map Legend


Flown Route
Filed Route
Departure Airport
Arrival Airport
Navaid (VOR, NDB)
Fix

Horizontal Profiles

Position Reports

Time Latitude Longitude Heading Altitude Ground
Speed
11-Oct-18 13:17 35.103405 -120.624442 32 15ft 0kts
11-Oct-18 13:18 35.103405 -120.624442 32 15ft 0kts
11-Oct-18 13:19 35.103405 -120.624442 32 15ft 0kts
11-Oct-18 13:20 35.103405 -120.624442 32 15ft 0kts
11-Oct-18 13:21 35.103405 -120.624442 32 15ft 0kts
11-Oct-18 13:22 35.103405 -120.624442 32 15ft 0kts
11-Oct-18 13:23 35.103405 -120.624442 32 15ft 0kts
11-Oct-18 13:24 35.103405 -120.624442 32 15ft 0kts
11-Oct-18 13:25 35.103405 -120.624442 32 15ft 0kts
11-Oct-18 13:26 35.103500 -120.625147 219 14ft 0kts
11-Oct-18 13:27 35.103214 -120.625300 169 14ft 9kts
11-Oct-18 13:28 35.096434 -120.607930 79 288ft 85kts
11-Oct-18 13:29 35.089485 -120.575044 104 1227ft 78kts
11-Oct-18 13:30 35.084973 -120.551252 85 1705ft 93kts
11-Oct-18 13:31 35.082649 -120.517071 89 2231ft 106kts
11-Oct-18 13:32 35.076909 -120.480913 98 2749ft 110kts
11-Oct-18 13:33 35.069470 -120.445137 96 3267ft 108kts
11-Oct-18 13:34 35.064266 -120.409198 94 3697ft 116kts
11-Oct-18 13:35 35.058231 -120.363468 94 3589ft 143kts
11-Oct-18 13:36 35.051709 -120.317045 99 3583ft 144kts
11-Oct-18 13:37 35.041490 -120.269766 101 3583ft 143kts
11-Oct-18 13:38 35.031093 -120.222410 102 3584ft 144kts
11-Oct-18 13:39 35.020730 -120.175207 101 3583ft 145kts
11-Oct-18 13:40 35.005305 -120.129996 118 3584ft 146kts
11-Oct-18 13:41 34.984812 -120.086731 119 3584ft 147kts
11-Oct-18 13:42 34.967629 -120.045735 97 4013ft 125kts
11-Oct-18 13:43 34.962860 -120.011357 93 4810ft 81kts
11-Oct-18 13:44 34.957574 -119.995052 149 6784ft 83kts
11-Oct-18 13:45 34.929065 -119.968439 146 4737ft 156kts
11-Oct-18 13:46 34.896665 -119.948269 161 4435ft 120kts
11-Oct-18 13:47 34.883043 -119.913292 96 4491ft 115kts
11-Oct-18 13:48 34.887739 -119.879767 60 4941ft 87kts
11-Oct-18 13:49 34.890853 -119.850722 84 5373ft 107kts
11-Oct-18 13:50 34.905856 -119.821098 55 5480ft 129kts
11-Oct-18 13:51 34.920097 -119.776427 56 4440ft 141kts
11-Oct-18 13:52 34.933571 -119.734329 69 3319ft 122kts
11-Oct-18 13:53 34.937950 -119.697560 85 2972ft 99kts
11-Oct-18 13:54 34.931653 -119.673837 352 2995ft 51kts
11-Oct-18 13:55 34.943817 -119.684801 299 2954ft 60kts
11-Oct-18 13:56 34.937583 -119.685362 118 2817ft 93kts
11-Oct-18 13:57 34.938316 -119.669379 293 3236ft 66kts
11-Oct-18 13:58 34.947001 -119.686658 302 3241ft 70kts
11-Oct-18 13:59 34.948175 -119.705778 132 3168ft 69kts
11-Oct-18 14:00 34.935988 -119.675688 112 2495ft 79kts
11-Oct-18 14:01 34.937409 -119.671286 282 2744ft 84kts
11-Oct-18 14:02 34.948336 -119.699845 282 2925ft 79kts
11-Oct-18 14:03 34.941111 -119.688513 112 2215ft 105kts
11-Oct-18 14:04 34.931959 -119.660516 98 2708ft 87kts
11-Oct-18 14:05 34.937549 -119.654019 276 3048ft 86kts
11-Oct-18 14:06 34.944329 -119.681768 300 2787ft 74kts
11-Oct-18 14:07 34.942020 -119.693394 90 2342ft 101kts
11-Oct-18 14:08 34.937806 -119.679128 354 2202ft 2kts
11-Oct-18 14:09 34.940323 -119.685258 301 2178ft 26kts
11-Oct-18 14:10 34.942285 -119.690567 299 2157ft 23kts
11-Oct-18 14:11 34.943461 -119.690696 19 2154ft 0kts
11-Oct-18 14:12 34.943461 -119.690696 19 2154ft 0kts

Navigation Log

Ident Type
Flight plan parsing failed, navigation log unavailable